sensor_id;sensor_type;location;lat;lon;timestamp;P1;durP1;ratioP1;P2;durP2;ratioP2
16480;SDS011;44634;54.110;12.138;2023-03-01T00:01:11;9.27;;;5.97;;
16480;SDS011;44634;54.110;12.138;2023-03-01T00:03:42;11.53;;;6.13;;
16480;SDS011;44634;54.110;12.138;2023-03-01T00:06:10;7.40;;;5.20;;
16480;SDS011;44634;54.110;12.138;2023-03-01T00:08:38;10.00;;;5.67;;
16480;SDS011;44634;54.110;12.138;2023-03-01T00:11:07;7.63;;;5.20;;
16480;SDS011;44634;54.110;12.138;2023-03-01T00:13:36;9.10;;;5.30;;
16480;SDS011;44634;54.110;12.138;2023-03-01T00:16:04;8.50;;;5.43;;
16480;SDS011;44634;54.110;12.138;2023-03-01T00:18:34;8.20;;;5.60;;
16480;SDS011;44634;54.110;12.138;2023-03-01T00:21:03;7.63;;;5.30;;
16480;SDS011;44634;54.110;12.138;2023-03-01T00:23:33;9.67;;;5.80;;
16480;SDS011;44634;54.110;12.138;2023-03-01T00:26:01;8.07;;;5.50;;
16480;SDS011;44634;54.110;12.138;2023-03-01T00:28:29;8.13;;;5.07;;
16480;SDS011;44634;54.110;12.138;2023-03-01T00:31:02;6.80;;;5.43;;
16480;SDS011;44634;54.110;12.138;2023-03-01T00:33:30;8.97;;;5.47;;
16480;SDS011;44634;54.110;12.138;2023-03-01T00:35:58;7.73;;;5.33;;
16480;SDS011;44634;54.110;12.138;2023-03-01T00:38:28;8.07;;;5.80;;
16480;SDS011;44634;54.110;12.138;2023-03-01T00:41:02;7.27;;;5.13;;
16480;SDS011;44634;54.110;12.138;2023-03-01T00:43:30;9.50;;;5.53;;
16480;SDS011;44634;54.110;12.138;2023-03-01T00:46:03;6.63;;;5.30;;
16480;SDS011;44634;54.110;12.138;2023-03-01T00:48:32;6.63;;;5.23;;
16480;SDS011;44634;54.110;12.138;2023-03-01T00:51:04;9.60;;;5.37;;
16480;SDS011;44634;54.110;12.138;2023-03-01T00:53:34;7.10;;;5.37;;
16480;SDS011;44634;54.110;12.138;2023-03-01T00:56:03;7.73;;;5.30;;
16480;SDS011;44634;54.110;12.138;2023-03-01T00:58:32;8.77;;;5.57;;
16480;SDS011;44634;54.110;12.138;2023-03-01T01:01:00;6.57;;;4.90;;
16480;SDS011;44634;54.110;12.138;2023-03-01T01:03:28;10.90;;;5.43;;
16480;SDS011;44634;54.110;12.138;2023-03-01T01:05:56;8.13;;;4.87;;
16480;SDS011;44634;54.110;12.138;2023-03-01T01:08:23;7.47;;;5.03;;
16480;SDS011;44634;54.110;12.138;2023-03-01T01:10:52;7.23;;;5.07;;
16480;SDS011;44634;54.110;12.138;2023-03-01T01:13:20;11.03;;;5.37;;
16480;SDS011;44634;54.110;12.138;2023-03-01T01:15:48;6.20;;;4.77;;
16480;SDS011;44634;54.110;12.138;2023-03-01T01:18:16;7.23;;;5.40;;
16480;SDS011;44634;54.110;12.138;2023-03-01T01:20:43;7.00;;;5.10;;
16480;SDS011;44634;54.110;12.138;2023-03-01T01:23:11;6.63;;;5.37;;
16480;SDS011;44634;54.110;12.138;2023-03-01T01:25:39;7.63;;;4.97;;
16480;SDS011;44634;54.110;12.138;2023-03-01T01:28:08;9.77;;;5.37;;
16480;SDS011;44634;54.110;12.138;2023-03-01T01:30:36;7.23;;;5.50;;
16480;SDS011;44634;54.110;12.138;2023-03-01T01:33:03;8.33;;;5.50;;
16480;SDS011;44634;54.110;12.138;2023-03-01T01:35:31;5.17;;;4.57;;
16480;SDS011;44634;54.110;12.138;2023-03-01T01:37:59;6.67;;;5.20;;
16480;SDS011;44634;54.110;12.138;2023-03-01T01:40:27;8.10;;;5.10;;
16480;SDS011;44634;54.110;12.138;2023-03-01T01:42:54;6.43;;;4.67;;
16480;SDS011;44634;54.110;12.138;2023-03-01T01:45:28;7.87;;;5.47;;
16480;SDS011;44634;54.110;12.138;2023-03-01T01:48:00;7.67;;;5.10;;
16480;SDS011;44634;54.110;12.138;2023-03-01T01:50:32;9.10;;;4.83;;
16480;SDS011;44634;54.110;12.138;2023-03-01T01:53:09;6.50;;;4.80;;
16480;SDS011;44634;54.110;12.138;2023-03-01T01:55:41;7.40;;;4.83;;
16480;SDS011;44634;54.110;12.138;2023-03-01T01:58:11;6.20;;;4.80;;
16480;SDS011;44634;54.110;12.138;2023-03-01T02:00:42;6.13;;;5.30;;
16480;SDS011;44634;54.110;12.138;2023-03-01T02:03:11;5.37;;;4.67;;
16480;SDS011;44634;54.110;12.138;2023-03-01T02:05:45;7.70;;;4.83;;
16480;SDS011;44634;54.110;12.138;2023-03-01T02:08:21;6.47;;;4.50;;
16480;SDS011;44634;54.110;12.138;2023-03-01T02:10:52;6.53;;;4.53;;
16480;SDS011;44634;54.110;12.138;2023-03-01T02:13:21;7.43;;;5.13;;
16480;SDS011;44634;54.110;12.138;2023-03-01T02:15:51;6.27;;;4.23;;
16480;SDS011;44634;54.110;12.138;2023-03-01T02:18:20;8.63;;;5.43;;
16480;SDS011;44634;54.110;12.138;2023-03-01T02:20:54;9.77;;;5.20;;
16480;SDS011;44634;54.110;12.138;2023-03-01T02:23:32;6.40;;;4.77;;
16480;SDS011;44634;54.110;12.138;2023-03-01T02:26:03;6.20;;;5.00;;
16480;SDS011;44634;54.110;12.138;2023-03-01T02:28:36;6.73;;;5.20;;
16480;SDS011;44634;54.110;12.138;2023-03-01T02:31:06;6.67;;;5.73;;
16480;SDS011;44634;54.110;12.138;2023-03-01T02:34:07;5.57;;;4.50;;
16480;SDS011;44634;54.110;12.138;2023-03-01T02:36:36;7.10;;;5.57;;
16480;SDS011;44634;54.110;12.138;2023-03-01T02:39:06;5.20;;;4.67;;
16480;SDS011;44634;54.110;12.138;2023-03-01T02:41:41;9.03;;;5.00;;
16480;SDS011;44634;54.110;12.138;2023-03-01T02:44:12;6.20;;;4.70;;
16480;SDS011;44634;54.110;12.138;2023-03-01T02:46:44;5.23;;;4.73;;
16480;SDS011;44634;54.110;12.138;2023-03-01T02:49:21;10.13;;;4.87;;
16480;SDS011;44634;54.110;12.138;2023-03-01T02:54:59;7.67;;;5.27;;
16480;SDS011;44634;54.110;12.138;2023-03-01T02:57:30;8.33;;;5.63;;
16480;SDS011;44634;54.110;12.138;2023-03-01T03:00:02;7.10;;;4.67;;
16480;SDS011;44634;54.110;12.138;2023-03-01T03:02:34;8.07;;;4.70;;
16480;SDS011;44634;54.110;12.138;2023-03-01T03:05:04;6.63;;;5.00;;
16480;SDS011;44634;54.110;12.138;2023-03-01T03:07:35;6.43;;;5.03;;
16480;SDS011;44634;54.110;12.138;2023-03-01T03:10:04;5.60;;;4.50;;
16480;SDS011;44634;54.110;12.138;2023-03-01T03:12:33;8.07;;;5.20;;
16480;SDS011;44634;54.110;12.138;2023-03-01T03:15:03;8.83;;;4.87;;
16480;SDS011;44634;54.110;12.138;2023-03-01T03:17:35;6.70;;;5.13;;
16480;SDS011;44634;54.110;12.138;2023-03-01T03:20:03;7.40;;;5.20;;
16480;SDS011;44634;54.110;12.138;2023-03-01T03:22:32;11.93;;;5.60;;
16480;SDS011;44634;54.110;12.138;2023-03-01T03:25:01;8.07;;;5.60;;
16480;SDS011;44634;54.110;12.138;2023-03-01T03:27:28;6.53;;;5.10;;
16480;SDS011;44634;54.110;12.138;2023-03-01T03:29:58;6.93;;;4.70;;
16480;SDS011;44634;54.110;12.138;2023-03-01T03:32:27;7.80;;;5.20;;
16480;SDS011;44634;54.110;12.138;2023-03-01T03:34:55;6.80;;;5.13;;
16480;SDS011;44634;54.110;12.138;2023-03-01T03:37:22;6.43;;;4.77;;
16480;SDS011;44634;54.110;12.138;2023-03-01T03:40:08;7.17;;;5.30;;
16480;SDS011;44634;54.110;12.138;2023-03-01T03:42:42;8.80;;;5.20;;
16480;SDS011;44634;54.110;12.138;2023-03-01T03:45:10;7.10;;;5.47;;
16480;SDS011;44634;54.110;12.138;2023-03-01T03:47:39;8.10;;;5.90;;
16480;SDS011;44634;54.110;12.138;2023-03-01T03:50:07;7.70;;;5.30;;
16480;SDS011;44634;54.110;12.138;2023-03-01T03:52:36;8.57;;;5.20;;
16480;SDS011;44634;54.110;12.138;2023-03-01T03:55:04;5.20;;;4.70;;
16480;SDS011;44634;54.110;12.138;2023-03-01T03:57:37;8.17;;;5.63;;
16480;SDS011;44634;54.110;12.138;2023-03-01T04:00:06;6.03;;;4.87;;
16480;SDS011;44634;54.110;12.138;2023-03-01T04:02:40;7.43;;;4.87;;
16480;SDS011;44634;54.110;12.138;2023-03-01T04:05:09;9.23;;;4.60;;
16480;SDS011;44634;54.110;12.138;2023-03-01T04:07:38;6.50;;;5.33;;
16480;SDS011;44634;54.110;12.138;2023-03-01T04:10:08;6.73;;;4.93;;
16480;SDS011;44634;54.110;12.138;2023-03-01T04:12:41;6.57;;;4.70;;
16480;SDS011;44634;54.110;12.138;2023-03-01T04:15:11;7.20;;;5.27;;
16480;SDS011;44634;54.110;12.138;2023-03-01T04:17:44;8.27;;;5.30;;
16480;SDS011;44634;54.110;12.138;2023-03-01T04:20:13;7.90;;;4.97;;
16480;SDS011;44634;54.110;12.138;2023-03-01T04:22:44;7.40;;;4.60;;
16480;SDS011;44634;54.110;12.138;2023-03-01T04:25:13;6.10;;;4.60;;
16480;SDS011;44634;54.110;12.138;2023-03-01T04:27:41;5.37;;;4.10;;
16480;SDS011;44634;54.110;12.138;2023-03-01T04:30:09;5.87;;;4.93;;
16480;SDS011;44634;54.110;12.138;2023-03-01T04:32:38;7.80;;;4.93;;
16480;SDS011;44634;54.110;12.138;2023-03-01T04:35:07;6.20;;;4.53;;
16480;SDS011;44634;54.110;12.138;2023-03-01T04:37:35;64.27;;;30.03;;
16480;SDS011;44634;54.110;12.138;2023-03-01T04:40:03;52.30;;;25.50;;
16480;SDS011;44634;54.110;12.138;2023-03-01T04:42:41;12.30;;;8.17;;
16480;SDS011;44634;54.110;12.138;2023-03-01T04:45:09;8.80;;;5.97;;
16480;SDS011;44634;54.110;12.138;2023-03-01T04:47:40;9.03;;;5.40;;
16480;SDS011;44634;54.110;12.138;2023-03-01T04:50:11;6.87;;;5.10;;
16480;SDS011;44634;54.110;12.138;2023-03-01T04:52:40;8.07;;;5.00;;
16480;SDS011;44634;54.110;12.138;2023-03-01T04:55:08;10.93;;;5.47;;
16480;SDS011;44634;54.110;12.138;2023-03-01T04:57:37;6.73;;;5.00;;
16480;SDS011;44634;54.110;12.138;2023-03-01T05:00:06;6.07;;;4.47;;
16480;SDS011;44634;54.110;12.138;2023-03-01T05:02:47;8.80;;;5.20;;
16480;SDS011;44634;54.110;12.138;2023-03-01T05:05:21;7.20;;;5.40;;
16480;SDS011;44634;54.110;12.138;2023-03-01T05:07:52;7.10;;;5.03;;
16480;SDS011;44634;54.110;12.138;2023-03-01T05:10:22;8.17;;;5.80;;
16480;SDS011;44634;54.110;12.138;2023-03-01T05:12:51;5.30;;;4.80;;
16480;SDS011;44634;54.110;12.138;2023-03-01T05:15:19;10.40;;;5.10;;
16480;SDS011;44634;54.110;12.138;2023-03-01T05:17:52;8.13;;;5.03;;
16480;SDS011;44634;54.110;12.138;2023-03-01T05:20:21;10.73;;;6.03;;
16480;SDS011;44634;54.110;12.138;2023-03-01T05:22:50;7.50;;;5.17;;
16480;SDS011;44634;54.110;12.138;2023-03-01T05:25:19;9.47;;;5.67;;
16480;SDS011;44634;54.110;12.138;2023-03-01T05:27:47;33.00;;;16.80;;
16480;SDS011;44634;54.110;12.138;2023-03-01T05:30:16;7.97;;;5.77;;
16480;SDS011;44634;54.110;12.138;2023-03-01T05:32:45;15.27;;;8.70;;
16480;SDS011;44634;54.110;12.138;2023-03-01T05:35:14;9.03;;;5.30;;
16480;SDS011;44634;54.110;12.138;2023-03-01T05:37:47;6.23;;;5.03;;
16480;SDS011;44634;54.110;12.138;2023-03-01T05:40:16;8.73;;;5.27;;
16480;SDS011;44634;54.110;12.138;2023-03-01T05:42:46;6.70;;;4.80;;
16480;SDS011;44634;54.110;12.138;2023-03-01T05:45:15;7.27;;;5.27;;
16480;SDS011;44634;54.110;12.138;2023-03-01T05:47:44;6.63;;;4.77;;
16480;SDS011;44634;54.110;12.138;2023-03-01T05:50:15;16.73;;;9.53;;
16480;SDS011;44634;54.110;12.138;2023-03-01T05:52:47;7.63;;;5.33;;
16480;SDS011;44634;54.110;12.138;2023-03-01T05:55:16;6.37;;;5.00;;
16480;SDS011;44634;54.110;12.138;2023-03-01T05:57:45;9.30;;;5.67;;
16480;SDS011;44634;54.110;12.138;2023-03-01T06:00:15;9.00;;;5.40;;
16480;SDS011;44634;54.110;12.138;2023-03-01T06:02:45;9.03;;;5.60;;
16480;SDS011;44634;54.110;12.138;2023-03-01T06:05:13;6.60;;;5.60;;
16480;SDS011;44634;54.110;12.138;2023-03-01T06:07:41;8.37;;;5.87;;
16480;SDS011;44634;54.110;12.138;2023-03-01T06:10:12;10.00;;;6.10;;
16480;SDS011;44634;54.110;12.138;2023-03-01T06:12:40;10.20;;;5.63;;
16480;SDS011;44634;54.110;12.138;2023-03-01T06:15:10;9.27;;;5.63;;
16480;SDS011;44634;54.110;12.138;2023-03-01T06:17:40;7.50;;;5.40;;
16480;SDS011;44634;54.110;12.138;2023-03-01T06:20:11;8.60;;;5.97;;
16480;SDS011;44634;54.110;12.138;2023-03-01T06:22:40;10.40;;;5.87;;
16480;SDS011;44634;54.110;12.138;2023-03-01T06:25:09;12.20;;;6.70;;
16480;SDS011;44634;54.110;12.138;2023-03-01T06:27:40;8.90;;;5.83;;
16480;SDS011;44634;54.110;12.138;2023-03-01T06:30:08;10.87;;;5.70;;
16480;SDS011;44634;54.110;12.138;2023-03-01T06:32:38;12.00;;;5.80;;
16480;SDS011;44634;54.110;12.138;2023-03-01T06:35:09;8.40;;;5.60;;
16480;SDS011;44634;54.110;12.138;2023-03-01T06:37:37;11.60;;;6.00;;
16480;SDS011;44634;54.110;12.138;2023-03-01T06:40:06;7.10;;;5.73;;
16480;SDS011;44634;54.110;12.138;2023-03-01T06:42:35;7.33;;;5.50;;
16480;SDS011;44634;54.110;12.138;2023-03-01T06:45:05;10.60;;;5.43;;
16480;SDS011;44634;54.110;12.138;2023-03-01T06:47:34;6.83;;;5.13;;
16480;SDS011;44634;54.110;12.138;2023-03-01T06:50:02;6.47;;;4.73;;
16480;SDS011;44634;54.110;12.138;2023-03-01T06:52:30;11.40;;;5.53;;
16480;SDS011;44634;54.110;12.138;2023-03-01T06:54:58;8.50;;;5.67;;
16480;SDS011;44634;54.110;12.138;2023-03-01T06:57:26;9.83;;;6.03;;
16480;SDS011;44634;54.110;12.138;2023-03-01T06:59:54;8.17;;;5.70;;
16480;SDS011;44634;54.110;12.138;2023-03-01T07:02:24;10.23;;;6.80;;
16480;SDS011;44634;54.110;12.138;2023-03-01T07:04:51;6.80;;;5.50;;
16480;SDS011;44634;54.110;12.138;2023-03-01T07:07:19;9.63;;;6.53;;
16480;SDS011;44634;54.110;12.138;2023-03-01T07:09:48;9.70;;;7.00;;
16480;SDS011;44634;54.110;12.138;2023-03-01T07:12:16;11.57;;;6.70;;
16480;SDS011;44634;54.110;12.138;2023-03-01T07:14:44;10.93;;;6.33;;
16480;SDS011;44634;54.110;12.138;2023-03-01T07:17:12;11.03;;;6.73;;
16480;SDS011;44634;54.110;12.138;2023-03-01T07:19:41;7.30;;;5.87;;
16480;SDS011;44634;54.110;12.138;2023-03-01T07:22:08;9.57;;;6.33;;
16480;SDS011;44634;54.110;12.138;2023-03-01T07:24:36;11.40;;;6.70;;
16480;SDS011;44634;54.110;12.138;2023-03-01T07:27:04;8.13;;;6.47;;
16480;SDS011;44634;54.110;12.138;2023-03-01T07:29:32;13.57;;;7.40;;
16480;SDS011;44634;54.110;12.138;2023-03-01T07:31:59;13.80;;;8.03;;
16480;SDS011;44634;54.110;12.138;2023-03-01T07:34:27;11.37;;;7.83;;
16480;SDS011;44634;54.110;12.138;2023-03-01T07:36:57;9.63;;;6.40;;
16480;SDS011;44634;54.110;12.138;2023-03-01T07:39:25;14.57;;;8.23;;
16480;SDS011;44634;54.110;12.138;2023-03-01T07:41:52;12.20;;;8.03;;
16480;SDS011;44634;54.110;12.138;2023-03-01T07:44:20;13.97;;;7.60;;
16480;SDS011;44634;54.110;12.138;2023-03-01T07:46:48;11.93;;;7.77;;
16480;SDS011;44634;54.110;12.138;2023-03-01T07:49:16;15.03;;;8.27;;
16480;SDS011;44634;54.110;12.138;2023-03-01T07:51:43;15.50;;;9.13;;
16480;SDS011;44634;54.110;12.138;2023-03-01T07:54:13;15.63;;;9.37;;
16480;SDS011;44634;54.110;12.138;2023-03-01T07:56:40;20.40;;;10.40;;
16480;SDS011;44634;54.110;12.138;2023-03-01T07:59:08;20.90;;;10.27;;
16480;SDS011;44634;54.110;12.138;2023-03-01T08:01:36;23.47;;;12.57;;
16480;SDS011;44634;54.110;12.138;2023-03-01T08:04:04;23.37;;;12.10;;
16480;SDS011;44634;54.110;12.138;2023-03-01T08:06:33;26.07;;;12.30;;
16480;SDS011;44634;54.110;12.138;2023-03-01T08:09:01;24.43;;;11.93;;
16480;SDS011;44634;54.110;12.138;2023-03-01T08:11:31;30.47;;;14.97;;
16480;SDS011;44634;54.110;12.138;2023-03-01T08:13:58;31.37;;;15.07;;
16480;SDS011;44634;54.110;12.138;2023-03-01T08:16:26;44.37;;;15.80;;
16480;SDS011;44634;54.110;12.138;2023-03-01T08:18:55;34.57;;;16.37;;
16480;SDS011;44634;54.110;12.138;2023-03-01T08:21:26;40.00;;;16.70;;
16480;SDS011;44634;54.110;12.138;2023-03-01T08:23:54;37.20;;;15.97;;
16480;SDS011;44634;54.110;12.138;2023-03-01T08:26:22;90.27;;;17.00;;
16480;SDS011;44634;54.110;12.138;2023-03-01T08:28:51;39.07;;;15.37;;
16480;SDS011;44634;54.110;12.138;2023-03-01T08:31:20;47.20;;;17.37;;
16480;SDS011;44634;54.110;12.138;2023-03-01T08:33:50;30.00;;;13.97;;
16480;SDS011;44634;54.110;12.138;2023-03-01T08:36:21;40.27;;;14.77;;
16480;SDS011;44634;54.110;12.138;2023-03-01T08:38:49;54.20;;;17.47;;
16480;SDS011;44634;54.110;12.138;2023-03-01T08:41:18;51.80;;;15.67;;
16480;SDS011;44634;54.110;12.138;2023-03-01T08:43:46;29.43;;;12.30;;
16480;SDS011;44634;54.110;12.138;2023-03-01T08:46:15;40.67;;;15.03;;
16480;SDS011;44634;54.110;12.138;2023-03-01T08:48:43;35.80;;;14.20;;
16480;SDS011;44634;54.110;12.138;2023-03-01T08:51:11;31.77;;;14.33;;
16480;SDS011;44634;54.110;12.138;2023-03-01T08:53:41;29.47;;;13.63;;
16480;SDS011;44634;54.110;12.138;2023-03-01T08:56:10;40.63;;;15.80;;
16480;SDS011;44634;54.110;12.138;2023-03-01T08:58:38;31.23;;;14.50;;
16480;SDS011;44634;54.110;12.138;2023-03-01T09:01:07;40.67;;;16.27;;
16480;SDS011;44634;54.110;12.138;2023-03-01T09:03:37;30.43;;;15.80;;
16480;SDS011;44634;54.110;12.138;2023-03-01T09:06:06;61.43;;;19.30;;
16480;SDS011;44634;54.110;12.138;2023-03-01T09:08:34;38.10;;;19.03;;
16480;SDS011;44634;54.110;12.138;2023-03-01T09:11:02;37.17;;;16.50;;
16480;SDS011;44634;54.110;12.138;2023-03-01T09:13:31;35.53;;;16.50;;
16480;SDS011;44634;54.110;12.138;2023-03-01T09:15:59;48.53;;;17.17;;
16480;SDS011;44634;54.110;12.138;2023-03-01T09:18:28;44.80;;;18.60;;
16480;SDS011;44634;54.110;12.138;2023-03-01T09:21:02;51.10;;;18.43;;
16480;SDS011;44634;54.110;12.138;2023-03-01T09:23:33;37.07;;;16.80;;
16480;SDS011;44634;54.110;12.138;2023-03-01T09:26:02;48.87;;;18.80;;
16480;SDS011;44634;54.110;12.138;2023-03-01T09:28:30;49.67;;;18.50;;
16480;SDS011;44634;54.110;12.138;2023-03-01T09:30:58;48.73;;;20.80;;
16480;SDS011;44634;54.110;12.138;2023-03-01T09:33:27;37.17;;;17.50;;
16480;SDS011;44634;54.110;12.138;2023-03-01T09:35:56;42.07;;;18.63;;
16480;SDS011;44634;54.110;12.138;2023-03-01T09:38:26;39.80;;;17.63;;
16480;SDS011;44634;54.110;12.138;2023-03-01T09:40:55;47.73;;;18.47;;
16480;SDS011;44634;54.110;12.138;2023-03-01T09:43:23;42.20;;;18.50;;
16480;SDS011;44634;54.110;12.138;2023-03-01T09:45:58;47.07;;;21.13;;
16480;SDS011;44634;54.110;12.138;2023-03-01T09:48:32;49.13;;;19.27;;
16480;SDS011;44634;54.110;12.138;2023-03-01T09:51:15;41.97;;;18.90;;
16480;SDS011;44634;54.110;12.138;2023-03-01T09:53:48;50.57;;;20.87;;
16480;SDS011;44634;54.110;12.138;2023-03-01T09:56:17;54.43;;;20.00;;
16480;SDS011;44634;54.110;12.138;2023-03-01T09:58:51;43.10;;;20.73;;
16480;SDS011;44634;54.110;12.138;2023-03-01T10:01:26;46.80;;;19.97;;
16480;SDS011;44634;54.110;12.138;2023-03-01T10:04:01;45.37;;;20.53;;
16480;SDS011;44634;54.110;12.138;2023-03-01T10:06:39;44.67;;;20.30;;
16480;SDS011;44634;54.110;12.138;2023-03-01T10:09:13;47.77;;;21.83;;
16480;SDS011;44634;54.110;12.138;2023-03-01T10:11:45;45.73;;;20.37;;
16480;SDS011;44634;54.110;12.138;2023-03-01T10:14:18;49.07;;;21.53;;
16480;SDS011;44634;54.110;12.138;2023-03-01T10:16:59;43.43;;;20.53;;
16480;SDS011;44634;54.110;12.138;2023-03-01T10:19:32;44.60;;;20.27;;
16480;SDS011;44634;54.110;12.138;2023-03-01T10:22:04;40.93;;;20.43;;
16480;SDS011;44634;54.110;12.138;2023-03-01T10:24:40;43.90;;;20.10;;
16480;SDS011;44634;54.110;12.138;2023-03-01T10:27:09;48.33;;;20.00;;
16480;SDS011;44634;54.110;12.138;2023-03-01T10:29:46;43.37;;;21.00;;
16480;SDS011;44634;54.110;12.138;2023-03-01T10:32:22;42.03;;;20.47;;
16480;SDS011;44634;54.110;12.138;2023-03-01T10:34:50;40.50;;;19.83;;
16480;SDS011;44634;54.110;12.138;2023-03-01T10:37:18;49.30;;;21.50;;
16480;SDS011;44634;54.110;12.138;2023-03-01T10:39:56;39.40;;;18.93;;
16480;SDS011;44634;54.110;12.138;2023-03-01T10:42:26;41.47;;;19.90;;
16480;SDS011;44634;54.110;12.138;2023-03-01T10:44:56;45.23;;;20.87;;
16480;SDS011;44634;54.110;12.138;2023-03-01T10:47:25;41.30;;;19.77;;
16480;SDS011;44634;54.110;12.138;2023-03-01T10:49:58;41.10;;;19.93;;
16480;SDS011;44634;54.110;12.138;2023-03-01T10:52:29;42.60;;;20.03;;
16480;SDS011;44634;54.110;12.138;2023-03-01T10:55:01;42.80;;;19.47;;
16480;SDS011;44634;54.110;12.138;2023-03-01T10:57:35;39.67;;;18.60;;
16480;SDS011;44634;54.110;12.138;2023-03-01T11:00:15;37.57;;;17.47;;
16480;SDS011;44634;54.110;12.138;2023-03-01T11:02:47;40.10;;;18.80;;
16480;SDS011;44634;54.110;12.138;2023-03-01T11:05:18;37.70;;;18.00;;
16480;SDS011;44634;54.110;12.138;2023-03-01T11:07:50;40.47;;;18.13;;
16480;SDS011;44634;54.110;12.138;2023-03-01T11:10:22;43.70;;;19.17;;
16480;SDS011;44634;54.110;12.138;2023-03-01T11:12:52;41.47;;;19.83;;
16480;SDS011;44634;54.110;12.138;2023-03-01T11:15:23;41.17;;;19.27;;
16480;SDS011;44634;54.110;12.138;2023-03-01T11:17:53;44.37;;;19.77;;
16480;SDS011;44634;54.110;12.138;2023-03-01T11:20:38;44.57;;;18.90;;
16480;SDS011;44634;54.110;12.138;2023-03-01T11:23:09;46.23;;;19.50;;
16480;SDS011;44634;54.110;12.138;2023-03-01T11:25:41;41.57;;;20.30;;
16480;SDS011;44634;54.110;12.138;2023-03-01T11:28:15;38.90;;;18.47;;
16480;SDS011;44634;54.110;12.138;2023-03-01T11:30:47;39.47;;;19.27;;
16480;SDS011;44634;54.110;12.138;2023-03-01T11:33:34;41.23;;;18.80;;
16480;SDS011;44634;54.110;12.138;2023-03-01T11:36:11;35.97;;;17.90;;
16480;SDS011;44634;54.110;12.138;2023-03-01T11:38:44;37.17;;;18.20;;
16480;SDS011;44634;54.110;12.138;2023-03-01T11:41:14;41.10;;;18.87;;
16480;SDS011;44634;54.110;12.138;2023-03-01T11:43:47;34.23;;;16.47;;
16480;SDS011;44634;54.110;12.138;2023-03-01T11:46:38;39.00;;;17.27;;
16480;SDS011;44634;54.110;12.138;2023-03-01T11:49:17;33.60;;;16.17;;
16480;SDS011;44634;54.110;12.138;2023-03-01T11:51:59;34.47;;;16.97;;
16480;SDS011;44634;54.110;12.138;2023-03-01T11:54:40;42.23;;;18.23;;
16480;SDS011;44634;54.110;12.138;2023-03-01T11:57:18;42.50;;;18.57;;
16480;SDS011;44634;54.110;12.138;2023-03-01T12:00:14;40.97;;;18.63;;
16480;SDS011;44634;54.110;12.138;2023-03-01T12:03:11;38.47;;;18.73;;
16480;SDS011;44634;54.110;12.138;2023-03-01T12:05:52;38.00;;;17.97;;
16480;SDS011;44634;54.110;12.138;2023-03-01T12:08:32;33.93;;;17.03;;
16480;SDS011;44634;54.110;12.138;2023-03-01T12:11:03;40.47;;;19.47;;
16480;SDS011;44634;54.110;12.138;2023-03-01T12:13:53;39.13;;;18.00;;
16480;SDS011;44634;54.110;12.138;2023-03-01T12:16:36;38.40;;;18.43;;
16480;SDS011;44634;54.110;12.138;2023-03-01T12:19:22;40.80;;;18.40;;
16480;SDS011;44634;54.110;12.138;2023-03-01T12:22:06;41.13;;;18.43;;
16480;SDS011;44634;54.110;12.138;2023-03-01T12:24:51;37.73;;;17.37;;
16480;SDS011;44634;54.110;12.138;2023-03-01T12:27:33;40.37;;;17.53;;
16480;SDS011;44634;54.110;12.138;2023-03-01T12:30:21;35.63;;;17.10;;
16480;SDS011;44634;54.110;12.138;2023-03-01T12:33:05;34.47;;;17.70;;
16480;SDS011;44634;54.110;12.138;2023-03-01T12:35:50;42.07;;;18.90;;
16480;SDS011;44634;54.110;12.138;2023-03-01T12:38:37;32.03;;;15.67;;
16480;SDS011;44634;54.110;12.138;2023-03-01T12:41:16;37.57;;;17.73;;
16480;SDS011;44634;54.110;12.138;2023-03-01T12:43:58;38.23;;;18.40;;
16480;SDS011;44634;54.110;12.138;2023-03-01T12:46:38;35.27;;;18.50;;
16480;SDS011;44634;54.110;12.138;2023-03-01T12:49:19;34.50;;;16.50;;
16480;SDS011;44634;54.110;12.138;2023-03-01T12:51:51;35.83;;;16.63;;
16480;SDS011;44634;54.110;12.138;2023-03-01T12:54:25;36.80;;;17.80;;
16480;SDS011;44634;54.110;12.138;2023-03-01T12:56:55;33.57;;;16.10;;
16480;SDS011;44634;54.110;12.138;2023-03-01T12:59:28;28.03;;;14.17;;
16480;SDS011;44634;54.110;12.138;2023-03-01T13:02:07;33.20;;;15.63;;
16480;SDS011;44634;54.110;12.138;2023-03-01T13:04:53;37.53;;;17.87;;
16480;SDS011;44634;54.110;12.138;2023-03-01T13:07:35;32.20;;;15.70;;
16480;SDS011;44634;54.110;12.138;2023-03-01T13:10:15;30.77;;;16.70;;
16480;SDS011;44634;54.110;12.138;2023-03-01T13:13:00;37.50;;;18.40;;
16480;SDS011;44634;54.110;12.138;2023-03-01T13:15:31;34.23;;;16.23;;
16480;SDS011;44634;54.110;12.138;2023-03-01T13:18:03;33.10;;;17.57;;
16480;SDS011;44634;54.110;12.138;2023-03-01T13:20:52;40.53;;;17.70;;
16480;SDS011;44634;54.110;12.138;2023-03-01T13:23:24;35.43;;;17.63;;
16480;SDS011;44634;54.110;12.138;2023-03-01T13:26:00;36.40;;;16.87;;
16480;SDS011;44634;54.110;12.138;2023-03-01T13:28:37;31.57;;;17.17;;
16480;SDS011;44634;54.110;12.138;2023-03-01T13:31:08;34.37;;;17.10;;
16480;SDS011;44634;54.110;12.138;2023-03-01T13:33:45;31.17;;;16.57;;
16480;SDS011;44634;54.110;12.138;2023-03-01T13:39:29;33.53;;;17.23;;
16480;SDS011;44634;54.110;12.138;2023-03-01T13:41:59;33.67;;;17.23;;
16480;SDS011;44634;54.110;12.138;2023-03-01T13:44:29;33.40;;;16.87;;
16480;SDS011;44634;54.110;12.138;2023-03-01T13:47:03;47.70;;;19.57;;
16480;SDS011;44634;54.110;12.138;2023-03-01T13:49:43;34.57;;;15.83;;
16480;SDS011;44634;54.110;12.138;2023-03-01T13:52:26;31.87;;;16.90;;
16480;SDS011;44634;54.110;12.138;2023-03-01T13:55:02;35.83;;;17.20;;
16480;SDS011;44634;54.110;12.138;2023-03-01T13:57:32;35.47;;;15.37;;
16480;SDS011;44634;54.110;12.138;2023-03-01T14:00:05;30.50;;;14.73;;
16480;SDS011;44634;54.110;12.138;2023-03-01T14:02:34;36.90;;;15.77;;
16480;SDS011;44634;54.110;12.138;2023-03-01T14:05:05;35.67;;;15.60;;
16480;SDS011;44634;54.110;12.138;2023-03-01T14:07:37;32.87;;;15.80;;
16480;SDS011;44634;54.110;12.138;2023-03-01T14:10:07;38.90;;;17.50;;
16480;SDS011;44634;54.110;12.138;2023-03-01T14:12:41;38.33;;;16.83;;
16480;SDS011;44634;54.110;12.138;2023-03-01T14:15:16;39.53;;;17.77;;
16480;SDS011;44634;54.110;12.138;2023-03-01T14:17:49;40.17;;;16.70;;
16480;SDS011;44634;54.110;12.138;2023-03-01T14:20:24;42.30;;;16.93;;
16480;SDS011;44634;54.110;12.138;2023-03-01T14:22:54;40.80;;;16.93;;
16480;SDS011;44634;54.110;12.138;2023-03-01T14:25:25;44.00;;;16.60;;
16480;SDS011;44634;54.110;12.138;2023-03-01T14:28:00;35.20;;;16.00;;
16480;SDS011;44634;54.110;12.138;2023-03-01T14:30:32;34.50;;;14.97;;
16480;SDS011;44634;54.110;12.138;2023-03-01T14:33:04;36.83;;;16.37;;
16480;SDS011;44634;54.110;12.138;2023-03-01T14:35:35;35.70;;;15.23;;
16480;SDS011;44634;54.110;12.138;2023-03-01T14:38:03;35.17;;;14.50;;
16480;SDS011;44634;54.110;12.138;2023-03-01T14:40:32;33.03;;;15.47;;
16480;SDS011;44634;54.110;12.138;2023-03-01T14:43:04;34.70;;;14.67;;
16480;SDS011;44634;54.110;12.138;2023-03-01T14:45:37;33.80;;;14.60;;
16480;SDS011;44634;54.110;12.138;2023-03-01T14:48:05;29.47;;;13.00;;
16480;SDS011;44634;54.110;12.138;2023-03-01T14:50:36;34.70;;;13.47;;
16480;SDS011;44634;54.110;12.138;2023-03-01T14:53:12;26.03;;;12.53;;